Cap Palliser — A8OH4 — position and weather

sailwx.info

Track history (hours):
 
Tides and Currents Weather Stations Pressure Air Temp Water Temp Dewpoint Dewpoint Depression Visibility Wind Speed Wind Dir Waves Ship Positions

Cap Palliser

Last reported at 2018-Feb-04 20:00 UTC. Time now 2018-Feb-23 04:43 UTC.
Position N 28°13' W 116°09'.
Warning: this ship's position is 18 days out of date.

Length 170 m; beam 27 m; draft 11.3 m.

Type: Ship (hazmat cat A). MMSI: 636016647.

Date/timePositionNaut miles runAvg speedWind from/ knotsBaromVisibWave heightAir tempDewpointWater temp
2018-Feb-04 20:00N 28°13' W 116°09'21016.2
2018-Feb-04 07:04N 31°01' W 118°34'216.3
2018-Feb-04 06:58N 31°02' W 118°35'716.4
2018-Feb-04 06:31N 31°08' W 118°40'816.3
2018-Feb-04 06:01N 31°14' W 118°46'1416.2
2018-Feb-04 05:09N 31°25' W 118°56'216.4
2018-Feb-04 05:00N 31°27' W 118°57'816.0
2018-Feb-04 04:30N 31°34' W 119°03'816.0
2018-Feb-04 04:01N 31°40' W 119°09'815.8
2018-Feb-04 03:30N 31°47' W 119°14'815.7
2018-Feb-04 03:00N 31°53' W 119°20'816.1
2018-Feb-04 02:30N 31°59' W 119°25'816.6
2018-Feb-04 02:00N 32°06' W 119°31'1116.5
2018-Feb-04 01:19N 32°15' W 119°39'816.4
2018-Feb-04 00:49N 32°22' W 119°45'516.5
2018-Feb-04 00:30N 32°26' W 119°49'1916.4
2018-Feb-03 23:19N 32°41' W 120°02'2316.0
2018-Feb-03 21:54N 32°60' W 120°19'615.6
2018-Feb-03 21:30N 33°04' W 120°23'915.9
2018-Feb-03 20:57N 33°11' W 120°29'715.9
2018-Feb-03 20:30N 33°17' W 120°34'815.7
2018-Feb-03 20:00N 33°23' W 120°40'2415.7
2018-Feb-03 18:29N 33°43' W 120°57'716.1
2018-Feb-03 18:01N 33°48' W 121°03'916.0
2018-Feb-03 17:28N 33°57' W 121°07'716.0
2018-Feb-03 17:00N 34°03' W 121°10'1615.6
2018-Feb-03 16:00N 34°18' W 121°17'816.0
2018-Feb-03 15:29N 34°25' W 121°21'816.1
2018-Feb-03 15:00N 34°33' W 121°25'816.0
2018-Feb-03 14:30N 34°40' W 121°28'815.9
2018-Feb-03 14:00N 34°47' W 121°32'816.0
2018-Feb-03 13:30N 34°55' W 121°36'815.8
2018-Feb-03 13:00N 35°02' W 121°39'815.5
2018-Feb-03 12:30N 35°09' W 121°43'815.5
2018-Feb-03 12:00N 35°16' W 121°47'815.8
2018-Feb-03 11:30N 35°24' W 121°51'815.9
2018-Feb-03 11:00N 35°31' W 121°54'7115.7
2018-Feb-03 06:30N 36°36' W 122°27'815.6
2018-Feb-03 06:00N 36°44' W 122°31'1315.8
2018-Feb-03 05:12N 36°56' W 122°36'516.1
2018-Feb-03 04:54N 36°60' W 122°39'1415.9
2018-Feb-03 04:00N 37°14' W 122°44'816.0
2018-Feb-03 03:30N 37°22' W 122°44'2415.8
2018-Feb-03 02:00N 37°45' W 122°40'815.2
2018-Feb-03 01:30N 37°48' W 122°32'714.0
2018-Feb-03 01:00N 37°49' W 122°23'3 6.4
2018-Feb-03 00:30N 37°48' W 122°19'0 0.2
2018-Feb-03 00:00N 37°48' W 122°19'0 0.0
2018-Feb-02 23:30N 37°48' W 122°19'0 0.0
2018-Feb-02 23:00N 37°48' W 122°19'0 0.0
2018-Feb-02 22:30N 37°48' W 122°19'0 0.0
2018-Feb-02 22:00N 37°48' W 122°19'0 0.0
2018-Feb-02 21:30N 37°48' W 122°19'0 0.0
2018-Feb-02 21:00N 37°48' W 122°19'0 0.0
2018-Feb-02 20:30N 37°48' W 122°19'0 0.0
2018-Feb-02 20:00N 37°48' W 122°19'0 0.0
2018-Feb-02 19:00N 37°48' W 122°19'0 0.0
2018-Feb-02 18:30N 37°48' W 122°19'0 0.0
2018-Feb-02 18:00N 37°48' W 122°19'0 0.0
2018-Feb-02 17:30N 37°48' W 122°19'0 0.0
2018-Feb-02 17:00N 37°48' W 122°19'0 0.0
2018-Feb-02 16:30N 37°48' W 122°19'0 0.0
2018-Feb-02 15:30N 37°48' W 122°19'0 0.0
2018-Feb-02 14:30N 37°48' W 122°19'0 0.0
2018-Feb-02 14:00N 37°48' W 122°19'0 0.0
2018-Feb-02 13:30N 37°48' W 122°19'1 2.2
2018-Feb-02 13:01N 37°48' W 122°20'5 9.2
2018-Feb-02 12:30N 37°49' W 122°26'5 9.6
2018-Feb-02 12:00N 37°48' W 122°32'714.3
2018-Feb-02 11:30N 37°45' W 122°40'510.4
2018-Feb-02 11:00N 37°40' W 122°40'611.6
2018-Feb-02 10:30N 37°34' W 122°40'611.6
2018-Feb-02 10:00N 37°28' W 122°40'611.3
2018-Feb-02 09:30N 37°22' W 122°40'611.5
2018-Feb-02 09:00N 37°17' W 122°40'611.4
2018-Feb-02 08:30N 37°11' W 122°39'611.7
2018-Feb-02 08:00N 37°05' W 122°37'611.5
2018-Feb-02 07:30N 37°00' W 122°34'611.5
2018-Feb-02 07:00N 36°55' W 122°31'611.7
2018-Feb-02 06:30N 36°49' W 122°28'611.9
2018-Feb-02 06:00N 36°44' W 122°26'611.8
2018-Feb-02 05:30N 36°38' W 122°23'611.7
2018-Feb-02 04:58N 36°33' W 122°20'2711.8
2018-Feb-02 02:43N 36°08' W 122°06'311.9
2018-Feb-02 02:30N 36°06' W 122°05'611.8
2018-Feb-02 02:00N 36°01' W 122°01'811.2
2018-Feb-02 01:15N 35°54' W 121°56'411.4
2018-Feb-02 00:55N 35°51' W 121°53'610.8
2018-Feb-02 00:22N 35°45' W 121°50'410.4
2018-Feb-02 00:00N 35°42' W 121°47'8602.1
2018-Feb-02 00:00N 35°36' W 121°42'2 5.0 320 / 141014.510.8 16.0 8.814.5
2018-Feb-01 23:30N 35°38' W 121°44'510.7
2018-Feb-01 23:00N 35°33' W 121°41'1110.5
2018-Feb-01 22:00N 35°24' W 121°34'510.6
2018-Feb-01 21:30N 35°20' W 121°31'2110.7
2018-Feb-01 19:30N 35°01' W 121°17'510.6
2018-Feb-01 19:00N 34°57' W 121°14'510.6
2018-Feb-01 18:30N 34°52' W 121°11'510.4
2018-Feb-01 18:00N 34°47' W 121°08'510.4
2018-Feb-01 17:30N 34°43' W 121°04'510.7
2018-Feb-01 17:00N 34°39' W 121°01'711.4
2018-Feb-01 16:26N 34°33' W 120°57'511.2
2018-Feb-01 16:00N 34°29' W 120°54'510.5
2018-Feb-01 15:30N 34°25' W 120°49'611.2
2018-Feb-01 14:58N 34°24' W 120°42'1711.4
2018-Feb-01 13:30N 34°19' W 120°22'611.4
2018-Feb-01 12:59N 34°18' W 120°15'611.2
2018-Feb-01 12:29N 34°16' W 120°09'611.3
2018-Feb-01 12:00N 34°15' W 120°02'1211.2
2018-Feb-01 10:58N 34°12' W 119°49'1711.6
2018-Feb-01 09:29N 34°07' W 119°29'611.5
2018-Feb-01 09:00N 34°06' W 119°22'611.9
2018-Feb-01 08:30N 34°04' W 119°16'1211.7
2018-Feb-01 07:30N 33°59' W 119°03'611.5
2018-Feb-01 07:00N 33°56' W 118°57'611.5
2018-Feb-01 06:30N 33°53' W 118°51'611.3
2018-Feb-01 06:00N 33°50' W 118°45'611.2
2018-Feb-01 05:30N 33°47' W 118°39'611.3
2018-Feb-01 05:00N 33°44' W 118°33'611.4
2018-Feb-01 04:31N 33°42' W 118°28'611.4
2018-Feb-01 04:00N 33°39' W 118°22'10 9.6
2018-Feb-01 03:00N 33°43' W 118°11'3 6.7
2018-Feb-01 02:30N 33°46' W 118°13'1 2.0
2018-Feb-01 02:00N 33°46' W 118°14'0 0.0
2018-Feb-01 01:30N 33°46' W 118°14'0 0.0
2018-Feb-01 01:00N 33°46' W 118°14'0 0.0
2018-Feb-01 00:30N 33°46' W 118°14'0 0.0
2018-Feb-01 00:00N 33°46' W 118°14'0 0.0
2018-Jan-31 23:00N 33°46' W 118°14'0 0.0
2018-Jan-31 22:30N 33°46' W 118°14'0 0.0
2018-Jan-31 21:00N 33°46' W 118°14'0 0.0
2018-Jan-31 20:30N 33°46' W 118°14'0 0.0
2018-Jan-31 20:00N 33°46' W 118°14'0 0.0
2018-Jan-31 19:30N 33°46' W 118°14'0 0.0
2018-Jan-31 19:00N 33°46' W 118°14'0 0.0
2018-Jan-31 18:27N 33°46' W 118°14'0 0.0
2018-Jan-31 18:00N 33°46' W 118°14'0 0.0
2018-Jan-31 17:30N 33°46' W 118°14'0 0.0
2018-Jan-31 17:00N 33°46' W 118°14'0 0.0
2018-Jan-31 16:30N 33°46' W 118°14'0 0.0
2018-Jan-31 16:00N 33°46' W 118°14'0 0.0
2018-Jan-31 15:27N 33°46' W 118°14'0 0.0
2018-Jan-31 14:57N 33°46' W 118°14'0 0.0
2018-Jan-31 14:30N 33°46' W 118°14'0 0.0
2018-Jan-31 13:00N 33°46' W 118°14'0 0.0
2018-Jan-31 12:30N 33°46' W 118°14'0 0.1
2018-Jan-31 12:00N 33°46' W 118°14'1 2.0
2018-Jan-31 11:30N 33°46' W 118°13'4 7.2
2018-Jan-31 10:58N 33°42' W 118°11'4 8.5
2018-Jan-31 10:30N 33°38' W 118°10'611.7
2018-Jan-31 10:00N 33°33' W 118°09'611.6
2018-Jan-31 09:30N 33°27' W 118°06'611.5
2018-Jan-31 09:00N 33°22' W 118°04'611.9
2018-Jan-31 08:30N 33°16' W 118°01'611.7
2018-Jan-31 08:00N 33°11' W 117°59'611.7
2018-Jan-31 07:30N 33°05' W 117°57'611.7
2018-Jan-31 07:00N 32°60' W 117°54'611.8
2018-Jan-31 06:30N 32°54' W 117°52'612.0
2018-Jan-31 06:00N 32°48' W 117°50'612.1
2018-Jan-31 05:30N 32°43' W 117°47'714.5
2018-Jan-31 05:00N 32°36' W 117°44'816.2
2018-Jan-31 04:31N 32°28' W 117°41'816.0
2018-Jan-31 04:00N 32°21' W 117°38'816.3
2018-Jan-31 03:30N 32°13' W 117°34'  
Track history (hours):
 
Tides and Currents Weather Stations Pressure Air Temp Water Temp Dewpoint Dewpoint Depression Visibility Wind Speed Wind Dir Waves Ship Positions

Cap Palliser

Last reported at 2018-Feb-04 20:00 UTC. Time now 2018-Feb-23 04:43 UTC.
Position N 28°13' W 116°09'.
Warning: this ship's position is 18 days out of date.

Length 170 m; beam 27 m; draft 11.3 m.

Type: Ship (hazmat cat A). MMSI: 636016647.

Date/timePositionNaut miles runAvg speedWind from/ knotsBaromVisibWave heightAir tempDewpointWater temp
2018-Feb-04 20:00N 28°13' W 116°09'21016.2
2018-Feb-04 07:04N 31°01' W 118°34'216.3
2018-Feb-04 06:58N 31°02' W 118°35'716.4
2018-Feb-04 06:31N 31°08' W 118°40'816.3
2018-Feb-04 06:01N 31°14' W 118°46'1416.2
2018-Feb-04 05:09N 31°25' W 118°56'216.4
2018-Feb-04 05:00N 31°27' W 118°57'816.0
2018-Feb-04 04:30N 31°34' W 119°03'816.0
2018-Feb-04 04:01N 31°40' W 119°09'815.8
2018-Feb-04 03:30N 31°47' W 119°14'815.7
2018-Feb-04 03:00N 31°53' W 119°20'816.1
2018-Feb-04 02:30N 31°59' W 119°25'816.6
2018-Feb-04 02:00N 32°06' W 119°31'1116.5
2018-Feb-04 01:19N 32°15' W 119°39'816.4
2018-Feb-04 00:49N 32°22' W 119°45'516.5
2018-Feb-04 00:30N 32°26' W 119°49'1916.4
2018-Feb-03 23:19N 32°41' W 120°02'2316.0
2018-Feb-03 21:54N 32°60' W 120°19'615.6
2018-Feb-03 21:30N 33°04' W 120°23'915.9
2018-Feb-03 20:57N 33°11' W 120°29'715.9
2018-Feb-03 20:30N 33°17' W 120°34'815.7
2018-Feb-03 20:00N 33°23' W 120°40'2415.7
2018-Feb-03 18:29N 33°43' W 120°57'716.1
2018-Feb-03 18:01N 33°48' W 121°03'916.0
2018-Feb-03 17:28N 33°57' W 121°07'716.0
2018-Feb-03 17:00N 34°03' W 121°10'1615.6
2018-Feb-03 16:00N 34°18' W 121°17'816.0
2018-Feb-03 15:29N 34°25' W 121°21'816.1
2018-Feb-03 15:00N 34°33' W 121°25'816.0
2018-Feb-03 14:30N 34°40' W 121°28'815.9
2018-Feb-03 14:00N 34°47' W 121°32'816.0
2018-Feb-03 13:30N 34°55' W 121°36'815.8
2018-Feb-03 13:00N 35°02' W 121°39'815.5
2018-Feb-03 12:30N 35°09' W 121°43'815.5
2018-Feb-03 12:00N 35°16' W 121°47'815.8
2018-Feb-03 11:30N 35°24' W 121°51'815.9
2018-Feb-03 11:00N 35°31' W 121°54'7115.7
2018-Feb-03 06:30N 36°36' W 122°27'815.6
2018-Feb-03 06:00N 36°44' W 122°31'1315.8
2018-Feb-03 05:12N 36°56' W 122°36'516.1
2018-Feb-03 04:54N 36°60' W 122°39'1415.9
2018-Feb-03 04:00N 37°14' W 122°44'816.0
2018-Feb-03 03:30N 37°22' W 122°44'2415.8
2018-Feb-03 02:00N 37°45' W 122°40'815.2
2018-Feb-03 01:30N 37°48' W 122°32'714.0
2018-Feb-03 01:00N 37°49' W 122°23'3 6.4
2018-Feb-03 00:30N 37°48' W 122°19'0 0.2
2018-Feb-03 00:00N 37°48' W 122°19'0 0.0
2018-Feb-02 23:30N 37°48' W 122°19'0 0.0
2018-Feb-02 23:00N 37°48' W 122°19'0 0.0
2018-Feb-02 22:30N 37°48' W 122°19'0 0.0
2018-Feb-02 22:00N 37°48' W 122°19'0 0.0
2018-Feb-02 21:30N 37°48' W 122°19'0 0.0
2018-Feb-02 21:00N 37°48' W 122°19'0 0.0
2018-Feb-02 20:30N 37°48' W 122°19'0 0.0
2018-Feb-02 20:00N 37°48' W 122°19'0 0.0
2018-Feb-02 19:00N 37°48' W 122°19'0 0.0
2018-Feb-02 18:30N 37°48' W 122°19'0 0.0
2018-Feb-02 18:00N 37°48' W 122°19'0 0.0
2018-Feb-02 17:30N 37°48' W 122°19'0 0.0
2018-Feb-02 17:00N 37°48' W 122°19'0 0.0
2018-Feb-02 16:30N 37°48' W 122°19'0 0.0
2018-Feb-02 15:30N 37°48' W 122°19'0 0.0
2018-Feb-02 14:30N 37°48' W 122°19'0 0.0
2018-Feb-02 14:00N 37°48' W 122°19'0 0.0
2018-Feb-02 13:30N 37°48' W 122°19'1 2.2
2018-Feb-02 13:01N 37°48' W 122°20'5 9.2
2018-Feb-02 12:30N 37°49' W 122°26'5 9.6
2018-Feb-02 12:00N 37°48' W 122°32'714.3
2018-Feb-02 11:30N 37°45' W 122°40'510.4
2018-Feb-02 11:00N 37°40' W 122°40'611.6
2018-Feb-02 10:30N 37°34' W 122°40'611.6
2018-Feb-02 10:00N 37°28' W 122°40'611.3
2018-Feb-02 09:30N 37°22' W 122°40'611.5
2018-Feb-02 09:00N 37°17' W 122°40'611.4
2018-Feb-02 08:30N 37°11' W 122°39'611.7
2018-Feb-02 08:00N 37°05' W 122°37'611.5
2018-Feb-02 07:30N 37°00' W 122°34'611.5
2018-Feb-02 07:00N 36°55' W 122°31'611.7
2018-Feb-02 06:30N 36°49' W 122°28'611.9
2018-Feb-02 06:00N 36°44' W 122°26'611.8
2018-Feb-02 05:30N 36°38' W 122°23'611.7
2018-Feb-02 04:58N 36°33' W 122°20'2711.8
2018-Feb-02 02:43N 36°08' W 122°06'311.9
2018-Feb-02 02:30N 36°06' W 122°05'611.8
2018-Feb-02 02:00N 36°01' W 122°01'811.2
2018-Feb-02 01:15N 35°54' W 121°56'411.4
2018-Feb-02 00:55N 35°51' W 121°53'610.8
2018-Feb-02 00:22N 35°45' W 121°50'410.4
2018-Feb-02 00:00N 35°42' W 121°47'8602.1
2018-Feb-02 00:00N 35°36' W 121°42'2 5.0 320 / 141014.510.8 16.0 8.814.5
2018-Feb-01 23:30N 35°38' W 121°44'510.7
2018-Feb-01 23:00N 35°33' W 121°41'1110.5
2018-Feb-01 22:00N 35°24' W 121°34'510.6
2018-Feb-01 21:30N 35°20' W 121°31'2110.7
2018-Feb-01 19:30N 35°01' W 121°17'510.6
2018-Feb-01 19:00N 34°57' W 121°14'510.6
2018-Feb-01 18:30N 34°52' W 121°11'510.4
2018-Feb-01 18:00N 34°47' W 121°08'510.4
2018-Feb-01 17:30N 34°43' W 121°04'510.7
2018-Feb-01 17:00N 34°39' W 121°01'711.4
2018-Feb-01 16:26N 34°33' W 120°57'511.2
2018-Feb-01 16:00N 34°29' W 120°54'510.5
2018-Feb-01 15:30N 34°25' W 120°49'611.2
2018-Feb-01 14:58N 34°24' W 120°42'1711.4
2018-Feb-01 13:30N 34°19' W 120°22'611.4
2018-Feb-01 12:59N 34°18' W 120°15'611.2
2018-Feb-01 12:29N 34°16' W 120°09'611.3
2018-Feb-01 12:00N 34°15' W 120°02'1211.2
2018-Feb-01 10:58N 34°12' W 119°49'1711.6
2018-Feb-01 09:29N 34°07' W 119°29'611.5
2018-Feb-01 09:00N 34°06' W 119°22'611.9
2018-Feb-01 08:30N 34°04' W 119°16'1211.7
2018-Feb-01 07:30N 33°59' W 119°03'611.5
2018-Feb-01 07:00N 33°56' W 118°57'611.5
2018-Feb-01 06:30N 33°53' W 118°51'611.3
2018-Feb-01 06:00N 33°50' W 118°45'611.2
2018-Feb-01 05:30N 33°47' W 118°39'611.3
2018-Feb-01 05:00N 33°44' W 118°33'611.4
2018-Feb-01 04:31N 33°42' W 118°28'611.4
2018-Feb-01 04:00N 33°39' W 118°22'10 9.6
2018-Feb-01 03:00N 33°43' W 118°11'3 6.7
2018-Feb-01 02:30N 33°46' W 118°13'1 2.0
2018-Feb-01 02:00N 33°46' W 118°14'0 0.0
2018-Feb-01 01:30N 33°46' W 118°14'0 0.0
2018-Feb-01 01:00N 33°46' W 118°14'0 0.0
2018-Feb-01 00:30N 33°46' W 118°14'0 0.0
2018-Feb-01 00:00N 33°46' W 118°14'0 0.0
2018-Jan-31 23:00N 33°46' W 118°14'0 0.0
2018-Jan-31 22:30N 33°46' W 118°14'0 0.0
2018-Jan-31 21:00N 33°46' W 118°14'0 0.0
2018-Jan-31 20:30N 33°46' W 118°14'0 0.0
2018-Jan-31 20:00N 33°46' W 118°14'0 0.0
2018-Jan-31 19:30N 33°46' W 118°14'0 0.0
2018-Jan-31 19:00N 33°46' W 118°14'0 0.0
2018-Jan-31 18:27N 33°46' W 118°14'0 0.0
2018-Jan-31 18:00N 33°46' W 118°14'0 0.0
2018-Jan-31 17:30N 33°46' W 118°14'0 0.0
2018-Jan-31 17:00N 33°46' W 118°14'0 0.0
2018-Jan-31 16:30N 33°46' W 118°14'0 0.0
2018-Jan-31 16:00N 33°46' W 118°14'0 0.0
2018-Jan-31 15:27N 33°46' W 118°14'0 0.0
2018-Jan-31 14:57N 33°46' W 118°14'0 0.0
2018-Jan-31 14:30N 33°46' W 118°14'0 0.0
2018-Jan-31 13:00N 33°46' W 118°14'0 0.0
2018-Jan-31 12:30N 33°46' W 118°14'0 0.1
2018-Jan-31 12:00N 33°46' W 118°14'1 2.0
2018-Jan-31 11:30N 33°46' W 118°13'4 7.2
2018-Jan-31 10:58N 33°42' W 118°11'4 8.5
2018-Jan-31 10:30N 33°38' W 118°10'611.7
2018-Jan-31 10:00N 33°33' W 118°09'611.6
2018-Jan-31 09:30N 33°27' W 118°06'611.5
2018-Jan-31 09:00N 33°22' W 118°04'611.9
2018-Jan-31 08:30N 33°16' W 118°01'611.7
2018-Jan-31 08:00N 33°11' W 117°59'611.7
2018-Jan-31 07:30N 33°05' W 117°57'611.7
2018-Jan-31 07:00N 32°60' W 117°54'611.8
2018-Jan-31 06:30N 32°54' W 117°52'612.0
2018-Jan-31 06:00N 32°48' W 117°50'612.1
2018-Jan-31 05:30N 32°43' W 117°47'714.5
2018-Jan-31 05:00N 32°36' W 117°44'816.2
2018-Jan-31 04:31N 32°28' W 117°41'816.0
2018-Jan-31 04:00N 32°21' W 117°38'816.3
2018-Jan-31 03:30N 32°13' W 117°34'  

Dump ship's entire track history